createdAt,value
2022-09-04T00:01:03.685Z,38.90
2022-09-04T00:04:23.186Z,40.43
2022-09-04T00:07:39.635Z,35.87
2022-09-04T00:10:55.359Z,37.50
2022-09-04T00:14:04.906Z,38.07
2022-09-04T00:17:17.840Z,41.07
2022-09-04T00:20:39.879Z,41.23
2022-09-04T00:23:53.505Z,43.13
2022-09-04T00:27:06.804Z,38.93
2022-09-04T00:30:19.780Z,38.67
2022-09-04T00:33:35.343Z,35.40
2022-09-04T00:36:50.237Z,32.63
2022-09-04T00:40:04.724Z,33.73
2022-09-04T00:43:37.117Z,36.10
2022-09-04T00:47:26.265Z,33.27
2022-09-04T00:50:55.579Z,31.37
2022-09-04T00:54:39.808Z,36.10
2022-09-04T00:58:26.069Z,33.60
2022-09-04T01:01:33.302Z,33.80
2022-09-04T01:04:58.433Z,34.93
2022-09-04T01:08:20.433Z,29.47
2022-09-04T01:11:38.290Z,29.03
2022-09-04T01:14:56.819Z,34.50
2022-09-04T01:18:11.232Z,34.73
2022-09-04T01:21:43.967Z,31.83
2022-09-04T01:25:11.806Z,33.90
2022-09-04T01:28:30.899Z,35.83
2022-09-04T01:31:46.257Z,37.73
2022-09-04T01:35:04.282Z,36.33
2022-09-04T01:38:19.376Z,39.90
2022-09-04T01:41:33.958Z,34.27
2022-09-04T01:44:44.495Z,35.40
2022-09-04T01:47:54.462Z,34.33
2022-09-04T01:51:07.519Z,35.13
2022-09-04T01:54:39.170Z,30.87
2022-09-04T01:58:06.524Z,35.07
2022-09-04T02:01:24.880Z,33.37
2022-09-04T02:04:41.335Z,33.87
2022-09-04T02:07:52.877Z,32.47
2022-09-04T02:11:04.918Z,28.70
2022-09-04T02:14:27.599Z,31.83
2022-09-04T02:17:45.315Z,33.27
2022-09-04T02:21:01.219Z,33.37
2022-09-04T02:24:21.550Z,34.03
2022-09-04T02:27:35.610Z,38.27
2022-09-04T02:30:54.572Z,38.43
2022-09-04T02:34:09.869Z,48.10
2022-09-04T02:37:24.103Z,44.27
2022-09-04T02:40:39.651Z,47.40
2022-09-04T02:44:03.361Z,46.20
2022-09-04T02:47:24.842Z,46.40
2022-09-04T02:50:53.310Z,43.97
2022-09-04T02:54:08.313Z,46.17
2022-09-04T02:57:28.140Z,41.30
2022-09-04T03:00:44.352Z,42.03
2022-09-04T03:04:03.327Z,43.57
2022-09-04T03:07:20.062Z,42.33
2022-09-04T03:10:32.294Z,42.80
2022-09-04T03:13:48.039Z,41.97
2022-09-04T03:17:03.238Z,40.50
2022-09-04T03:20:16.327Z,45.63
2022-09-04T03:23:35.241Z,44.33
2022-09-04T03:26:46.970Z,42.70
2022-09-04T03:30:04.910Z,41.23
2022-09-04T03:33:21.556Z,42.23
2022-09-04T03:36:40.185Z,38.67
2022-09-04T03:40:02.218Z,37.57
2022-09-04T03:43:33.641Z,36.07
2022-09-04T03:46:58.386Z,36.93
2022-09-04T03:50:18.341Z,35.93
2022-09-04T03:53:32.975Z,39.43
2022-09-04T03:57:03.594Z,37.70
2022-09-04T04:00:18.210Z,36.97
2022-09-04T04:03:52.378Z,38.67
2022-09-04T04:07:10.104Z,38.90
2022-09-04T04:10:33.485Z,38.00
2022-09-04T04:14:08.581Z,37.13
2022-09-04T04:17:52.383Z,37.73
2022-09-04T04:21:10.548Z,37.17
2022-09-04T04:24:41.717Z,36.90
2022-09-04T04:28:09.179Z,37.40
2022-09-04T04:31:34.616Z,37.50
2022-09-04T04:35:01.332Z,36.67
2022-09-04T04:38:27.545Z,36.63
2022-09-04T04:42:06.921Z,36.00
2022-09-04T04:45:42.012Z,35.93
2022-09-04T04:49:44.729Z,35.23
2022-09-04T04:53:00.942Z,35.77
2022-09-04T04:56:15.353Z,36.47
2022-09-04T04:59:32.065Z,37.20
2022-09-04T05:02:51.835Z,37.87
2022-09-04T05:06:06.978Z,40.30
2022-09-04T05:09:23.139Z,41.20
2022-09-04T05:12:43.888Z,40.50
2022-09-04T05:16:08.923Z,41.87
2022-09-04T05:19:23.574Z,41.43
2022-09-04T05:22:40.947Z,43.53
2022-09-04T05:25:55.889Z,43.23
2022-09-04T05:29:08.243Z,41.27
2022-09-04T05:32:24.518Z,42.00
2022-09-04T05:35:43.631Z,39.73
2022-09-04T05:39:08.622Z,40.53
2022-09-04T05:42:48.734Z,42.43
2022-09-04T05:46:07.768Z,39.10
2022-09-04T05:49:29.220Z,39.60
2022-09-04T05:53:15.861Z,41.93
2022-09-04T05:57:11.933Z,40.47
2022-09-04T06:00:20.246Z,39.77
2022-09-04T06:03:57.494Z,40.83
2022-09-04T06:07:11.375Z,38.47
2022-09-04T06:10:24.175Z,36.17
2022-09-04T06:14:00.267Z,36.20
2022-09-04T06:17:27.507Z,35.03
2022-09-04T06:20:52.985Z,34.53
2022-09-04T06:24:18.098Z,35.43
2022-09-04T06:27:43.112Z,33.60
2022-09-04T06:31:03.872Z,35.13
2022-09-04T06:34:22.168Z,34.93
2022-09-04T06:37:38.474Z,33.43
2022-09-04T06:41:00.251Z,34.13
2022-09-04T06:44:22.389Z,32.63
2022-09-04T06:47:43.161Z,35.17
2022-09-04T06:51:00.902Z,33.87
2022-09-04T06:54:19.458Z,32.23
2022-09-04T06:58:05.324Z,30.67
2022-09-04T07:01:17.496Z,29.80
2022-09-04T07:04:45.774Z,31.33
2022-09-04T07:08:05.221Z,29.80
2022-09-04T07:11:28.490Z,30.63
2022-09-04T07:15:13.091Z,28.27
2022-09-04T07:18:38.955Z,28.00
2022-09-04T07:22:00.442Z,27.33
2022-09-04T07:25:15.059Z,26.87
2022-09-04T07:28:37.556Z,26.67
2022-09-04T07:31:51.364Z,26.37
2022-09-04T07:35:08.966Z,25.77
2022-09-04T07:38:27.752Z,24.60
2022-09-04T07:41:44.194Z,23.73
2022-09-04T07:44:59.247Z,23.33
2022-09-04T07:48:22.426Z,21.33
2022-09-04T07:51:36.145Z,20.10
2022-09-04T07:55:08.825Z,18.30
2022-09-04T07:58:52.718Z,18.60
2022-09-04T08:02:20.326Z,16.57
2022-09-04T08:05:31.295Z,14.17
2022-09-04T08:09:10.840Z,13.73
2022-09-04T08:12:47.570Z,13.90
2022-09-04T08:16:06.920Z,11.63
2022-09-04T08:19:27.646Z,8.53
2022-09-04T08:22:47.986Z,7.97
2022-09-04T08:26:12.088Z,7.70
2022-09-04T08:29:36.635Z,7.57
2022-09-04T08:33:29.961Z,6.45
2022-09-04T08:36:48.468Z,6.40
2022-09-04T08:40:19.843Z,6.07
2022-09-04T08:43:39.937Z,5.65
2022-09-04T08:47:26.797Z,6.93
2022-09-04T08:51:09.121Z,4.88
2022-09-04T08:55:20.306Z,5.22
2022-09-04T08:59:00.675Z,4.80
2022-09-04T09:03:16.597Z,4.93
2022-09-04T09:07:04.245Z,4.20
2022-09-04T09:10:53.559Z,4.53
2022-09-04T09:14:49.107Z,4.10
2022-09-04T09:18:35.753Z,4.13
2022-09-04T09:21:49.252Z,4.10
2022-09-04T09:25:20.506Z,4.20
2022-09-04T09:29:20.352Z,3.65
2022-09-04T09:33:23.889Z,3.63
2022-09-04T09:37:21.580Z,4.00
2022-09-04T09:40:58.799Z,3.92
2022-09-04T09:44:54.491Z,3.42
2022-09-04T09:48:53.199Z,3.63
2022-09-04T09:52:24.021Z,3.80
2022-09-04T09:55:58.515Z,2.85
2022-09-04T09:59:44.890Z,3.13
2022-09-04T10:03:44.763Z,3.50
2022-09-04T10:07:54.807Z,2.95
2022-09-04T10:11:27.631Z,2.88
2022-09-04T10:15:23.719Z,3.08
2022-09-04T10:19:24.828Z,2.83
2022-09-04T10:23:14.900Z,3.42
2022-09-04T10:27:10.366Z,3.30
2022-09-04T10:30:20.059Z,3.30
2022-09-04T10:33:38.648Z,2.78
2022-09-04T10:36:56.813Z,3.40
2022-09-04T10:40:42.842Z,3.03
2022-09-04T10:44:18.251Z,3.08
2022-09-04T10:48:15.854Z,3.50
2022-09-04T10:52:00.130Z,3.30
2022-09-04T10:55:27.854Z,4.15
2022-09-04T10:59:10.749Z,4.10
2022-09-04T11:03:03.171Z,4.00
2022-09-04T11:06:44.185Z,4.72
2022-09-04T11:10:12.324Z,4.82
2022-09-04T11:14:06.079Z,5.68
2022-09-04T11:18:01.899Z,5.40
2022-09-04T11:22:00.003Z,5.82
2022-09-04T11:25:48.855Z,5.50
2022-09-04T11:29:24.327Z,5.43
2022-09-04T11:33:04.237Z,4.88
2022-09-04T11:36:49.686Z,5.03
2022-09-04T11:40:47.722Z,4.20
2022-09-04T11:44:58.251Z,3.25
2022-09-04T11:48:43.069Z,2.50
2022-09-04T11:52:18.140Z,2.95
2022-09-04T11:55:59.492Z,2.58
2022-09-04T11:59:31.711Z,2.40
2022-09-04T12:03:06.837Z,2.30
2022-09-04T12:06:28.906Z,2.08
2022-09-04T12:10:11.206Z,1.80
2022-09-04T12:14:15.406Z,1.95
2022-09-04T12:17:47.498Z,1.63
2022-09-04T12:21:37.787Z,1.83
2022-09-04T12:25:29.882Z,1.95
2022-09-04T12:29:24.006Z,2.13
2022-09-04T12:33:08.959Z,1.92
2022-09-04T12:37:06.090Z,1.48
2022-09-04T12:40:34.460Z,1.60
2022-09-04T12:44:03.757Z,1.45
2022-09-04T12:47:28.405Z,1.60
2022-09-04T12:50:45.407Z,1.30
2022-09-04T12:54:10.339Z,1.63
2022-09-04T12:57:33.925Z,0.93
2022-09-04T13:00:51.547Z,1.35
2022-09-04T13:04:07.204Z,1.30
2022-09-04T13:07:32.551Z,0.90
2022-09-04T13:10:50.805Z,1.40
2022-09-04T13:14:34.964Z,1.30
2022-09-04T13:17:53.089Z,1.27
2022-09-04T13:21:12.238Z,1.30
2022-09-04T13:24:39.955Z,1.33
2022-09-04T13:28:04.683Z,1.05
2022-09-04T13:31:48.499Z,1.17
2022-09-04T13:35:18.766Z,0.90
2022-09-04T13:39:03.559Z,1.10
2022-09-04T13:43:15.525Z,1.08
2022-09-04T13:46:29.420Z,1.05
2022-09-04T13:51:01.656Z,1.02
2022-09-04T13:54:42.821Z,1.10
2022-09-04T13:58:00.615Z,0.95
2022-09-04T14:01:16.364Z,1.30
2022-09-04T14:04:26.433Z,1.02
2022-09-04T14:07:36.579Z,0.95
2022-09-04T14:11:26.937Z,1.08
2022-09-04T14:15:25.184Z,1.38
2022-09-04T14:19:17.337Z,1.08
2022-09-04T14:22:44.897Z,1.50
2022-09-04T14:25:56.973Z,1.10
2022-09-04T14:29:16.010Z,1.40
2022-09-04T14:32:32.994Z,1.33
2022-09-04T14:35:47.757Z,1.10
2022-09-04T14:39:14.661Z,1.25
2022-09-04T14:42:45.481Z,0.90
2022-09-04T14:46:11.774Z,0.80
2022-09-04T14:49:24.815Z,1.02
2022-09-04T14:52:40.422Z,1.10
2022-09-04T14:56:18.150Z,0.98
2022-09-04T14:59:30.166Z,1.08
2022-09-04T15:02:42.811Z,1.20
2022-09-04T15:05:56.806Z,1.10
2022-09-04T15:09:24.632Z,1.30
2022-09-04T15:12:36.257Z,1.30
2022-09-04T15:15:46.890Z,1.38
2022-09-04T15:19:00.079Z,1.20
2022-09-04T15:22:12.967Z,1.10
2022-09-04T15:25:58.262Z,0.93
2022-09-04T15:29:14.247Z,1.10
2022-09-04T15:32:23.453Z,1.10
2022-09-04T15:35:33.809Z,1.48
2022-09-04T15:38:50.619Z,1.50
2022-09-04T15:41:58.279Z,0.85
2022-09-04T15:45:17.857Z,1.10
2022-09-04T15:48:41.904Z,1.30
2022-09-04T15:51:55.002Z,1.30
2022-09-04T15:55:10.769Z,1.30
2022-09-04T15:58:29.332Z,1.40
2022-09-04T16:01:48.197Z,1.45
2022-09-04T16:05:05.211Z,1.30
2022-09-04T16:08:23.453Z,1.30
2022-09-04T16:11:35.331Z,1.05
2022-09-04T16:14:49.364Z,1.38
2022-09-04T16:17:57.749Z,0.93
2022-09-04T16:21:14.940Z,1.25
2022-09-04T16:24:31.362Z,1.40
2022-09-04T16:27:46.922Z,1.25
2022-09-04T16:30:59.498Z,1.48
2022-09-04T16:34:20.585Z,1.15
2022-09-04T16:37:33.089Z,1.20
2022-09-04T16:40:48.590Z,1.20
2022-09-04T16:44:23.903Z,1.30
2022-09-04T16:47:44.593Z,1.30
2022-09-04T16:50:55.922Z,1.70
2022-09-04T16:54:12.302Z,1.02
2022-09-04T16:57:21.565Z,1.20
2022-09-04T17:00:29.731Z,1.20
2022-09-04T17:03:51.992Z,1.40
2022-09-04T17:07:23.870Z,1.70
2022-09-04T17:10:42.395Z,1.00
2022-09-04T17:13:58.634Z,1.27
2022-09-04T17:17:29.995Z,1.88
2022-09-04T17:22:47.586Z,1.30
2022-09-04T17:29:17.340Z,1.17
2022-09-04T17:29:17.341Z,1.20
2022-09-04T17:31:33.164Z,1.42
2022-09-04T17:40:40.112Z,1.50
2022-09-04T17:40:42.888Z,1.27
2022-09-04T17:42:10.414Z,1.67
2022-09-04T17:45:27.916Z,1.23
2022-09-04T17:48:41.001Z,0.73
2022-09-04T17:51:58.351Z,1.13
2022-09-04T17:55:11.986Z,0.80
2022-09-04T17:58:31.358Z,0.63
2022-09-04T18:01:52.504Z,1.00
2022-09-04T18:05:12.486Z,1.00
2022-09-04T18:08:25.691Z,0.90
2022-09-04T18:11:40.776Z,0.80
2022-09-04T18:15:27.601Z,1.00
2022-09-04T18:18:40.661Z,1.47
2022-09-04T18:22:08.444Z,1.47
2022-09-04T18:25:23.990Z,1.70
2022-09-04T18:28:40.943Z,1.80
2022-09-04T18:37:06.913Z,1.60
2022-09-04T18:37:26.211Z,1.50
2022-09-04T18:39:10.011Z,1.90
2022-09-04T18:50:30.998Z,1.73
2022-09-04T18:50:31.482Z,1.90
2022-09-04T18:50:37.885Z,1.83
2022-09-04T18:53:01.519Z,2.00
2022-09-04T18:56:20.430Z,2.40
2022-09-04T18:59:32.663Z,2.40
2022-09-04T19:02:53.166Z,2.93
2022-09-04T19:06:09.132Z,2.73
2022-09-04T19:09:22.486Z,2.47
2022-09-04T19:12:47.715Z,2.60
2022-09-04T19:16:04.654Z,2.27
2022-09-04T19:19:20.244Z,2.60
2022-09-04T19:22:36.382Z,2.00
2022-09-04T19:25:53.325Z,1.70
2022-09-04T19:29:10.314Z,2.03
2022-09-04T19:32:27.451Z,2.20
2022-09-04T19:35:45.823Z,2.20
2022-09-04T19:45:30.796Z,2.50
2022-09-04T19:46:17.277Z,2.87
2022-09-04T19:46:30.886Z,2.60
2022-09-04T19:51:52.317Z,2.63
2022-09-04T19:53:41.157Z,2.80
2022-09-04T19:57:30.984Z,3.60
2022-09-04T20:00:31.130Z,3.20
2022-09-04T20:03:56.297Z,3.30
2022-09-04T20:07:10.487Z,4.30
2022-09-04T20:10:23.833Z,3.10
2022-09-04T20:13:39.142Z,3.77
2022-09-04T20:17:04.233Z,4.23
2022-09-04T20:20:19.027Z,3.73
2022-09-04T20:23:34.411Z,3.20
2022-09-04T20:26:53.377Z,4.00
2022-09-04T20:30:11.399Z,3.57
2022-09-04T20:33:22.527Z,3.50
2022-09-04T20:36:37.495Z,3.43
2022-09-04T20:39:53.054Z,3.70
2022-09-04T20:43:26.650Z,3.53
2022-09-04T20:52:25.308Z,3.37
2022-09-04T20:52:57.782Z,4.53
2022-09-04T20:54:28.718Z,4.30
2022-09-04T21:03:05.114Z,4.20
2022-09-04T21:03:19.607Z,4.77
2022-09-04T21:05:49.918Z,4.53
2022-09-04T21:09:34.595Z,4.97
2022-09-04T21:12:49.918Z,4.63
2022-09-04T21:16:32.234Z,4.70
2022-09-04T21:20:34.435Z,4.40
2022-09-04T21:24:21.982Z,4.83
2022-09-04T21:28:04.005Z,5.20
2022-09-04T21:31:27.575Z,5.20
2022-09-04T21:34:57.901Z,6.10
2022-09-04T21:38:34.369Z,5.13
2022-09-04T21:42:16.943Z,4.97
2022-09-04T21:45:37.845Z,5.00
2022-09-04T21:49:26.930Z,5.20
2022-09-04T21:52:58.255Z,4.43
2022-09-04T22:00:17.468Z,3.90
2022-09-04T22:02:39.059Z,4.40
2022-09-04T22:03:45.734Z,4.20
2022-09-04T22:09:44.456Z,3.57
2022-09-04T22:13:37.244Z,4.57
2022-09-04T22:14:31.741Z,4.53
2022-09-04T22:18:05.523Z,4.30
2022-09-04T22:21:39.648Z,4.07
2022-09-04T22:25:32.590Z,4.60
2022-09-04T22:29:08.535Z,4.70
2022-09-04T22:33:24.337Z,4.20
2022-09-04T22:37:02.530Z,4.47
2022-09-04T22:40:29.225Z,4.23
2022-09-04T22:43:47.265Z,4.47
2022-09-04T22:47:31.878Z,3.93
2022-09-04T22:50:54.213Z,3.30
2022-09-04T22:54:23.151Z,3.33
2022-09-04T22:57:47.235Z,2.90
2022-09-04T23:01:21.696Z,3.10
2022-09-04T23:04:58.316Z,3.10
2022-09-04T23:13:43.150Z,3.10
2022-09-04T23:13:52.404Z,3.10
2022-09-04T23:16:00.474Z,2.70
2022-09-04T23:26:35.719Z,3.43
2022-09-04T23:26:51.087Z,2.90
2022-09-04T23:27:33.699Z,2.80
2022-09-04T23:30:51.202Z,2.50
2022-09-04T23:34:33.883Z,2.70
2022-09-04T23:38:11.026Z,2.27
2022-09-04T23:41:36.812Z,2.43
2022-09-04T23:45:29.519Z,2.73
2022-09-04T23:49:24.954Z,2.60
2022-09-04T23:52:49.189Z,2.53
2022-09-04T23:56:12.349Z,2.73
2022-09-04T23:59:37.985Z,2.47
